sensor_id;sensor_type;location;lat;lon;timestamp;temperature;humidity
11009;DHT22;5557;51.670;7.788;2023-10-09T00:02:09;10.80;99.90
11009;DHT22;5557;51.670;7.788;2023-10-09T00:04:38;10.80;99.90
11009;DHT22;5557;51.670;7.788;2023-10-09T00:07:09;10.80;99.90
11009;DHT22;5557;51.670;7.788;2023-10-09T00:09:40;10.70;99.90
11009;DHT22;5557;51.670;7.788;2023-10-09T00:12:17;10.70;99.90
11009;DHT22;5557;51.670;7.788;2023-10-09T00:14:50;10.90;99.90
11009;DHT22;5557;51.670;7.788;2023-10-09T00:17:17;11.00;99.90
11009;DHT22;5557;51.670;7.788;2023-10-09T00:19:48;11.00;99.90
11009;DHT22;5557;51.670;7.788;2023-10-09T00:22:19;11.10;99.90
11009;DHT22;5557;51.670;7.788;2023-10-09T00:24:57;11.10;99.90
11009;DHT22;5557;51.670;7.788;2023-10-09T00:27:48;11.10;99.90
11009;DHT22;5557;51.670;7.788;2023-10-09T00:30:16;11.10;99.90
11009;DHT22;5557;51.670;7.788;2023-10-09T00:32:57;11.10;99.90
11009;DHT22;5557;51.670;7.788;2023-10-09T00:35:37;11.10;99.90
11009;DHT22;5557;51.670;7.788;2023-10-09T00:38:06;11.20;99.90
11009;DHT22;5557;51.670;7.788;2023-10-09T00:41:00;11.20;99.90
11009;DHT22;5557;51.670;7.788;2023-10-09T00:43:38;11.20;99.90
11009;DHT22;5557;51.670;7.788;2023-10-09T00:46:07;11.30;99.90
11009;DHT22;5557;51.670;7.788;2023-10-09T00:49:07;11.30;99.90
11009;DHT22;5557;51.670;7.788;2023-10-09T00:51:42;11.50;99.90
11009;DHT22;5557;51.670;7.788;2023-10-09T00:54:23;11.80;99.90
11009;DHT22;5557;51.670;7.788;2023-10-09T00:56:54;11.90;99.90
11009;DHT22;5557;51.670;7.788;2023-10-09T00:59:26;12.00;99.90
11009;DHT22;5557;51.670;7.788;2023-10-09T01:01:53;12.10;99.90
11009;DHT22;5557;51.670;7.788;2023-10-09T01:04:25;12.10;99.90
11009;DHT22;5557;51.670;7.788;2023-10-09T01:06:59;12.30;99.90
11009;DHT22;5557;51.670;7.788;2023-10-09T01:09:35;12.40;99.90
11009;DHT22;5557;51.670;7.788;2023-10-09T01:12:05;12.50;99.90
11009;DHT22;5557;51.670;7.788;2023-10-09T01:14:33;12.50;99.90
11009;DHT22;5557;51.670;7.788;2023-10-09T01:17:04;12.60;99.90
11009;DHT22;5557;51.670;7.788;2023-10-09T01:19:36;12.70;99.90
11009;DHT22;5557;51.670;7.788;2023-10-09T01:22:03;12.80;99.90
11009;DHT22;5557;51.670;7.788;2023-10-09T01:24:40;12.80;99.90
11009;DHT22;5557;51.670;7.788;2023-10-09T01:27:08;12.80;99.90
11009;DHT22;5557;51.670;7.788;2023-10-09T01:29:43;12.80;99.90
11009;DHT22;5557;51.670;7.788;2023-10-09T01:32:13;12.80;99.90
11009;DHT22;5557;51.670;7.788;2023-10-09T01:34:44;12.80;99.90
11009;DHT22;5557;51.670;7.788;2023-10-09T01:37:21;12.80;99.90
11009;DHT22;5557;51.670;7.788;2023-10-09T01:39:57;12.80;99.90
11009;DHT22;5557;51.670;7.788;2023-10-09T01:43:03;12.90;99.90
11009;DHT22;5557;51.670;7.788;2023-10-09T01:45:30;12.90;99.90
11009;DHT22;5557;51.670;7.788;2023-10-09T01:48:09;12.80;99.90
11009;DHT22;5557;51.670;7.788;2023-10-09T01:50:39;12.90;99.90
11009;DHT22;5557;51.670;7.788;2023-10-09T01:53:09;12.80;99.90
11009;DHT22;5557;51.670;7.788;2023-10-09T01:55:36;12.80;99.90
11009;DHT22;5557;51.670;7.788;2023-10-09T01:58:12;12.80;99.90
11009;DHT22;5557;51.670;7.788;2023-10-09T02:00:49;12.80;99.90
11009;DHT22;5557;51.670;7.788;2023-10-09T02:03:21;12.80;99.90
11009;DHT22;5557;51.670;7.788;2023-10-09T02:05:53;12.80;99.90
11009;DHT22;5557;51.670;7.788;2023-10-09T02:08:27;12.80;99.90
11009;DHT22;5557;51.670;7.788;2023-10-09T02:10:54;12.80;99.90
11009;DHT22;5557;51.670;7.788;2023-10-09T02:13:24;12.80;99.90
11009;DHT22;5557;51.670;7.788;2023-10-09T02:15:58;12.80;99.90
11009;DHT22;5557;51.670;7.788;2023-10-09T02:18:39;12.80;99.90
11009;DHT22;5557;51.670;7.788;2023-10-09T02:21:08;12.80;99.90
11009;DHT22;5557;51.670;7.788;2023-10-09T02:23:44;12.80;99.90
11009;DHT22;5557;51.670;7.788;2023-10-09T02:26:12;12.90;99.90
11009;DHT22;5557;51.670;7.788;2023-10-09T02:28:46;12.90;99.90
11009;DHT22;5557;51.670;7.788;2023-10-09T02:31:39;12.90;99.90
11009;DHT22;5557;51.670;7.788;2023-10-09T02:34:13;12.90;99.90
11009;DHT22;5557;51.670;7.788;2023-10-09T02:36:45;13.00;99.90
11009;DHT22;5557;51.670;7.788;2023-10-09T02:39:17;13.00;99.90
11009;DHT22;5557;51.670;7.788;2023-10-09T02:41:54;13.10;99.90
11009;DHT22;5557;51.670;7.788;2023-10-09T02:44:47;13.20;99.90
11009;DHT22;5557;51.670;7.788;2023-10-09T02:47:20;13.50;99.90
11009;DHT22;5557;51.670;7.788;2023-10-09T02:49:51;13.60;99.90
11009;DHT22;5557;51.670;7.788;2023-10-09T02:52:18;13.60;99.90
11009;DHT22;5557;51.670;7.788;2023-10-09T02:54:48;13.70;99.90
11009;DHT22;5557;51.670;7.788;2023-10-09T02:57:15;13.70;99.90
11009;DHT22;5557;51.670;7.788;2023-10-09T02:59:54;13.80;99.90
11009;DHT22;5557;51.670;7.788;2023-10-09T03:02:21;13.90;99.90
11009;DHT22;5557;51.670;7.788;2023-10-09T03:04:52;14.00;99.90
11009;DHT22;5557;51.670;7.788;2023-10-09T03:07:22;14.10;99.90
11009;DHT22;5557;51.670;7.788;2023-10-09T03:09:50;14.20;99.90
11009;DHT22;5557;51.670;7.788;2023-10-09T03:12:17;14.20;99.90
11009;DHT22;5557;51.670;7.788;2023-10-09T03:14:54;14.40;99.90
11009;DHT22;5557;51.670;7.788;2023-10-09T03:17:25;14.50;99.90
11009;DHT22;5557;51.670;7.788;2023-10-09T03:19:54;14.50;99.90
11009;DHT22;5557;51.670;7.788;2023-10-09T03:22:21;14.50;99.90
11009;DHT22;5557;51.670;7.788;2023-10-09T03:24:50;14.60;99.90
11009;DHT22;5557;51.670;7.788;2023-10-09T03:27:21;14.60;99.90
11009;DHT22;5557;51.670;7.788;2023-10-09T03:29:51;14.70;99.90
11009;DHT22;5557;51.670;7.788;2023-10-09T03:32:27;14.70;99.90
11009;DHT22;5557;51.670;7.788;2023-10-09T03:34:54;14.70;99.90
11009;DHT22;5557;51.670;7.788;2023-10-09T03:37:25;14.70;99.90
11009;DHT22;5557;51.670;7.788;2023-10-09T03:40:04;14.70;99.90
11009;DHT22;5557;51.670;7.788;2023-10-09T03:42:33;14.70;99.90
11009;DHT22;5557;51.670;7.788;2023-10-09T03:45:03;14.80;99.90
11009;DHT22;5557;51.670;7.788;2023-10-09T03:47:46;14.70;99.90
11009;DHT22;5557;51.670;7.788;2023-10-09T03:50:15;14.80;99.90
11009;DHT22;5557;51.670;7.788;2023-10-09T03:53:11;14.80;99.90
11009;DHT22;5557;51.670;7.788;2023-10-09T03:55:40;14.80;99.90
11009;DHT22;5557;51.670;7.788;2023-10-09T03:58:07;14.90;99.90
11009;DHT22;5557;51.670;7.788;2023-10-09T04:00:39;14.90;99.90
11009;DHT22;5557;51.670;7.788;2023-10-09T04:03:16;15.00;99.90
11009;DHT22;5557;51.670;7.788;2023-10-09T04:05:43;15.00;99.90
11009;DHT22;5557;51.670;7.788;2023-10-09T04:08:11;15.00;99.90
11009;DHT22;5557;51.670;7.788;2023-10-09T04:10:43;15.00;99.90
11009;DHT22;5557;51.670;7.788;2023-10-09T04:13:11;15.00;99.90
11009;DHT22;5557;51.670;7.788;2023-10-09T04:15:44;15.00;99.90
11009;DHT22;5557;51.670;7.788;2023-10-09T04:18:11;15.00;99.90
11009;DHT22;5557;51.670;7.788;2023-10-09T04:20:44;15.00;99.90
11009;DHT22;5557;51.670;7.788;2023-10-09T04:23:30;15.10;99.90
11009;DHT22;5557;51.670;7.788;2023-10-09T04:26:22;15.10;99.90
11009;DHT22;5557;51.670;7.788;2023-10-09T04:28:55;15.10;99.90
11009;DHT22;5557;51.670;7.788;2023-10-09T04:31:23;15.10;99.90
11009;DHT22;5557;51.670;7.788;2023-10-09T04:33:59;15.10;99.90
11009;DHT22;5557;51.670;7.788;2023-10-09T04:36:45;15.10;99.90
11009;DHT22;5557;51.670;7.788;2023-10-09T04:39:28;15.20;99.90
11009;DHT22;5557;51.670;7.788;2023-10-09T04:42:18;15.20;99.90
11009;DHT22;5557;51.670;7.788;2023-10-09T04:45:11;15.20;99.90
11009;DHT22;5557;51.670;7.788;2023-10-09T04:47:58;15.20;99.90
11009;DHT22;5557;51.670;7.788;2023-10-09T04:50:25;15.30;99.90
11009;DHT22;5557;51.670;7.788;2023-10-09T04:53:12;15.30;99.90
11009;DHT22;5557;51.670;7.788;2023-10-09T04:55:41;15.30;99.90
11009;DHT22;5557;51.670;7.788;2023-10-09T04:58:22;15.30;99.90
11009;DHT22;5557;51.670;7.788;2023-10-09T05:00:58;15.30;99.90
11009;DHT22;5557;51.670;7.788;2023-10-09T05:03:31;15.30;99.90
11009;DHT22;5557;51.670;7.788;2023-10-09T05:06:10;15.30;99.90
11009;DHT22;5557;51.670;7.788;2023-10-09T05:08:56;15.30;99.90
11009;DHT22;5557;51.670;7.788;2023-10-09T05:11:35;15.20;99.90
11009;DHT22;5557;51.670;7.788;2023-10-09T05:14:21;15.20;99.90
11009;DHT22;5557;51.670;7.788;2023-10-09T05:17:06;15.20;99.90
11009;DHT22;5557;51.670;7.788;2023-10-09T05:19:42;15.30;99.90
11009;DHT22;5557;51.670;7.788;2023-10-09T05:22:22;15.30;99.90
11009;DHT22;5557;51.670;7.788;2023-10-09T05:25:04;15.30;99.90
11009;DHT22;5557;51.670;7.788;2023-10-09T05:27:42;15.20;99.90
11009;DHT22;5557;51.670;7.788;2023-10-09T05:30:12;15.20;99.90
11009;DHT22;5557;51.670;7.788;2023-10-09T05:32:55;15.20;99.90
11009;DHT22;5557;51.670;7.788;2023-10-09T05:35:26;15.20;99.90
11009;DHT22;5557;51.670;7.788;2023-10-09T05:38:21;15.20;99.90
11009;DHT22;5557;51.670;7.788;2023-10-09T05:40:52;15.20;99.90
11009;DHT22;5557;51.670;7.788;2023-10-09T05:43:21;15.20;99.90
11009;DHT22;5557;51.670;7.788;2023-10-09T05:46:07;15.20;99.90
11009;DHT22;5557;51.670;7.788;2023-10-09T05:48:36;15.10;99.90
11009;DHT22;5557;51.670;7.788;2023-10-09T05:51:21;15.10;99.90
11009;DHT22;5557;51.670;7.788;2023-10-09T05:54:07;15.10;99.90
11009;DHT22;5557;51.670;7.788;2023-10-09T05:56:52;15.10;99.90
11009;DHT22;5557;51.670;7.788;2023-10-09T05:59:38;15.10;99.90
11009;DHT22;5557;51.670;7.788;2023-10-09T06:02:34;15.10;99.90
11009;DHT22;5557;51.670;7.788;2023-10-09T06:05:28;15.10;99.90
11009;DHT22;5557;51.670;7.788;2023-10-09T06:08:09;15.10;99.90
11009;DHT22;5557;51.670;7.788;2023-10-09T06:10:36;15.10;99.90
11009;DHT22;5557;51.670;7.788;2023-10-09T06:13:08;15.10;99.90
11009;DHT22;5557;51.670;7.788;2023-10-09T06:15:53;15.10;99.90
11009;DHT22;5557;51.670;7.788;2023-10-09T06:18:36;15.20;99.90
11009;DHT22;5557;51.670;7.788;2023-10-09T06:21:10;15.20;99.90
11009;DHT22;5557;51.670;7.788;2023-10-09T06:23:57;15.20;99.90
11009;DHT22;5557;51.670;7.788;2023-10-09T06:26:46;15.20;99.90
11009;DHT22;5557;51.670;7.788;2023-10-09T06:29:40;15.30;99.90
11009;DHT22;5557;51.670;7.788;2023-10-09T06:32:25;15.30;99.90
11009;DHT22;5557;51.670;7.788;2023-10-09T06:35:00;15.30;99.90
11009;DHT22;5557;51.670;7.788;2023-10-09T06:37:44;15.40;99.90
11009;DHT22;5557;51.670;7.788;2023-10-09T06:40:49;15.50;99.90
11009;DHT22;5557;51.670;7.788;2023-10-09T06:43:32;15.50;99.90
11009;DHT22;5557;51.670;7.788;2023-10-09T06:46:04;15.50;99.90
11009;DHT22;5557;51.670;7.788;2023-10-09T06:49:09;15.50;99.90
11009;DHT22;5557;51.670;7.788;2023-10-09T06:51:56;15.60;99.90
11009;DHT22;5557;51.670;7.788;2023-10-09T06:54:25;15.60;99.90
11009;DHT22;5557;51.670;7.788;2023-10-09T06:56:56;15.60;99.90
11009;DHT22;5557;51.670;7.788;2023-10-09T06:59:32;15.60;99.90
11009;DHT22;5557;51.670;7.788;2023-10-09T07:02:19;15.60;99.90
11009;DHT22;5557;51.670;7.788;2023-10-09T07:04:52;15.60;99.90
11009;DHT22;5557;51.670;7.788;2023-10-09T07:07:22;15.70;99.90
11009;DHT22;5557;51.670;7.788;2023-10-09T07:09:51;15.60;99.90
11009;DHT22;5557;51.670;7.788;2023-10-09T07:12:37;15.70;99.90
11009;DHT22;5557;51.670;7.788;2023-10-09T07:15:10;15.70;99.90
11009;DHT22;5557;51.670;7.788;2023-10-09T07:17:58;15.70;99.90
11009;DHT22;5557;51.670;7.788;2023-10-09T07:20:45;15.80;99.90
11009;DHT22;5557;51.670;7.788;2023-10-09T07:23:26;15.80;99.90
11009;DHT22;5557;51.670;7.788;2023-10-09T07:26:03;15.90;99.90
11009;DHT22;5557;51.670;7.788;2023-10-09T07:28:45;15.90;99.90
11009;DHT22;5557;51.670;7.788;2023-10-09T07:31:19;16.00;99.90
11009;DHT22;5557;51.670;7.788;2023-10-09T07:33:54;16.00;99.90
11009;DHT22;5557;51.670;7.788;2023-10-09T07:36:24;16.00;99.90
11009;DHT22;5557;51.670;7.788;2023-10-09T07:39:02;16.00;99.60
11009;DHT22;5557;51.670;7.788;2023-10-09T07:41:41;16.10;99.90
11009;DHT22;5557;51.670;7.788;2023-10-09T07:44:12;16.10;99.70
11009;DHT22;5557;51.670;7.788;2023-10-09T07:46:59;16.20;99.70
11009;DHT22;5557;51.670;7.788;2023-10-09T07:49:46;16.20;98.60
11009;DHT22;5557;51.670;7.788;2023-10-09T07:52:21;16.30;98.10
11009;DHT22;5557;51.670;7.788;2023-10-09T07:54:49;16.30;97.20
11009;DHT22;5557;51.670;7.788;2023-10-09T07:57:42;16.30;96.30
11009;DHT22;5557;51.670;7.788;2023-10-09T08:00:18;16.30;95.80
11009;DHT22;5557;51.670;7.788;2023-10-09T08:03:16;16.30;97.00
11009;DHT22;5557;51.670;7.788;2023-10-09T08:05:51;16.30;97.70
11009;DHT22;5557;51.670;7.788;2023-10-09T08:08:20;16.30;97.20
11009;DHT22;5557;51.670;7.788;2023-10-09T08:11:07;16.30;97.90
11009;DHT22;5557;51.670;7.788;2023-10-09T08:13:53;16.30;98.30
11009;DHT22;5557;51.670;7.788;2023-10-09T08:16:24;16.30;99.00
11009;DHT22;5557;51.670;7.788;2023-10-09T08:19:04;16.30;99.20
11009;DHT22;5557;51.670;7.788;2023-10-09T08:21:50;16.30;99.60
11009;DHT22;5557;51.670;7.788;2023-10-09T08:24:35;16.30;99.90
11009;DHT22;5557;51.670;7.788;2023-10-09T08:27:09;16.30;99.90
11009;DHT22;5557;51.670;7.788;2023-10-09T08:30:15;16.30;99.90
11009;DHT22;5557;51.670;7.788;2023-10-09T08:33:00;16.40;99.90
11009;DHT22;5557;51.670;7.788;2023-10-09T08:35:34;16.40;99.90
11009;DHT22;5557;51.670;7.788;2023-10-09T08:38:03;16.40;99.90
11009;DHT22;5557;51.670;7.788;2023-10-09T08:40:38;16.40;99.90
11009;DHT22;5557;51.670;7.788;2023-10-09T08:43:17;16.40;99.90
11009;DHT22;5557;51.670;7.788;2023-10-09T08:45:54;16.50;99.90
11009;DHT22;5557;51.670;7.788;2023-10-09T08:48:28;16.50;99.90
11009;DHT22;5557;51.670;7.788;2023-10-09T08:50:56;16.60;99.90
11009;DHT22;5557;51.670;7.788;2023-10-09T08:53:24;16.60;99.90
11009;DHT22;5557;51.670;7.788;2023-10-09T08:55:54;16.60;99.60
11009;DHT22;5557;51.670;7.788;2023-10-09T08:58:23;16.70;99.30
11009;DHT22;5557;51.670;7.788;2023-10-09T09:00:59;16.70;99.00
11009;DHT22;5557;51.670;7.788;2023-10-09T09:03:38;16.70;99.70
11009;DHT22;5557;51.670;7.788;2023-10-09T09:06:05;16.70;99.90
11009;DHT22;5557;51.670;7.788;2023-10-09T09:08:33;16.70;99.90
11009;DHT22;5557;51.670;7.788;2023-10-09T09:11:14;16.70;99.50
11009;DHT22;5557;51.670;7.788;2023-10-09T09:13:45;16.70;98.20
11009;DHT22;5557;51.670;7.788;2023-10-09T09:16:20;16.70;97.80
11009;DHT22;5557;51.670;7.788;2023-10-09T09:18:56;16.70;98.50
11009;DHT22;5557;51.670;7.788;2023-10-09T09:21:38;16.80;99.10
11009;DHT22;5557;51.670;7.788;2023-10-09T09:24:09;16.80;98.80
11009;DHT22;5557;51.670;7.788;2023-10-09T09:26:43;16.80;97.10
11009;DHT22;5557;51.670;7.788;2023-10-09T09:29:15;16.90;97.50
11009;DHT22;5557;51.670;7.788;2023-10-09T09:31:56;16.90;96.30
11009;DHT22;5557;51.670;7.788;2023-10-09T09:34:47;17.00;96.40
11009;DHT22;5557;51.670;7.788;2023-10-09T09:37:21;17.10;93.90
11009;DHT22;5557;51.670;7.788;2023-10-09T09:39:50;17.20;94.30
11009;DHT22;5557;51.670;7.788;2023-10-09T09:42:22;17.20;93.00
11009;DHT22;5557;51.670;7.788;2023-10-09T09:44:55;17.30;91.20
11009;DHT22;5557;51.670;7.788;2023-10-09T09:47:24;17.40;90.60
11009;DHT22;5557;51.670;7.788;2023-10-09T09:49:55;17.40;88.00
11009;DHT22;5557;51.670;7.788;2023-10-09T09:52:38;17.60;88.30
11009;DHT22;5557;51.670;7.788;2023-10-09T09:55:10;17.70;85.40
11009;DHT22;5557;51.670;7.788;2023-10-09T09:57:48;17.80;77.80
11009;DHT22;5557;51.670;7.788;2023-10-09T10:00:21;17.90;78.40
11009;DHT22;5557;51.670;7.788;2023-10-09T10:03:23;17.90;73.80
11009;DHT22;5557;51.670;7.788;2023-10-09T10:05:52;18.00;67.80
11009;DHT22;5557;51.670;7.788;2023-10-09T10:08:23;18.10;65.00
11009;DHT22;5557;51.670;7.788;2023-10-09T10:10:59;18.20;65.90
11009;DHT22;5557;51.670;7.788;2023-10-09T10:14:02;18.20;61.50
11009;DHT22;5557;51.670;7.788;2023-10-09T10:16:32;18.30;61.50
11009;DHT22;5557;51.670;7.788;2023-10-09T10:19:06;18.30;59.30
11009;DHT22;5557;51.670;7.788;2023-10-09T10:21:45;18.30;61.40
11009;DHT22;5557;51.670;7.788;2023-10-09T10:30:26;18.30;55.70
11009;DHT22;5557;51.670;7.788;2023-10-09T10:33:00;18.30;58.30
11009;DHT22;5557;51.670;7.788;2023-10-09T10:35:37;18.30;57.70
11009;DHT22;5557;51.670;7.788;2023-10-09T10:38:31;18.40;54.20
11009;DHT22;5557;51.670;7.788;2023-10-09T10:41:17;18.40;52.50
11009;DHT22;5557;51.670;7.788;2023-10-09T10:43:46;18.40;51.30
11009;DHT22;5557;51.670;7.788;2023-10-09T10:46:26;18.40;50.70
11009;DHT22;5557;51.670;7.788;2023-10-09T10:49:02;18.40;50.50
11009;DHT22;5557;51.670;7.788;2023-10-09T10:51:43;18.50;50.40
11009;DHT22;5557;51.670;7.788;2023-10-09T10:54:23;18.50;47.40
11009;DHT22;5557;51.670;7.788;2023-10-09T10:57:19;18.50;48.10
11009;DHT22;5557;51.670;7.788;2023-10-09T11:00:17;18.60;44.70
11009;DHT22;5557;51.670;7.788;2023-10-09T11:03:03;18.60;46.10
11009;DHT22;5557;51.670;7.788;2023-10-09T11:05:51;18.60;46.40
11009;DHT22;5557;51.670;7.788;2023-10-09T11:08:23;18.60;45.60
11009;DHT22;5557;51.670;7.788;2023-10-09T11:10:50;18.70;45.10
11009;DHT22;5557;51.670;7.788;2023-10-09T11:13:22;18.70;46.20
11009;DHT22;5557;51.670;7.788;2023-10-09T11:16:00;18.80;43.80
11009;DHT22;5557;51.670;7.788;2023-10-09T11:18:53;18.90;42.70
11009;DHT22;5557;51.670;7.788;2023-10-09T11:21:23;18.90;39.90
11009;DHT22;5557;51.670;7.788;2023-10-09T11:23:58;19.00;40.80
11009;DHT22;5557;51.670;7.788;2023-10-09T11:26:26;19.10;39.70
11009;DHT22;5557;51.670;7.788;2023-10-09T11:29:11;19.20;34.50
11009;DHT22;5557;51.670;7.788;2023-10-09T11:32:08;19.30;35.20
11009;DHT22;5557;51.670;7.788;2023-10-09T11:34:48;19.20;33.70
11009;DHT22;5557;51.670;7.788;2023-10-09T11:37:23;19.20;34.90
11009;DHT22;5557;51.670;7.788;2023-10-09T11:39:59;19.20;36.00
11009;DHT22;5557;51.670;7.788;2023-10-09T11:42:28;19.20;36.90
11009;DHT22;5557;51.670;7.788;2023-10-09T11:45:07;19.20;35.50
11009;DHT22;5557;51.670;7.788;2023-10-09T11:47:48;19.20;37.10
11009;DHT22;5557;51.670;7.788;2023-10-09T11:50:44;19.20;36.50
11009;DHT22;5557;51.670;7.788;2023-10-09T11:53:23;19.10;36.40
11009;DHT22;5557;51.670;7.788;2023-10-09T11:56:10;19.20;36.80
11009;DHT22;5557;51.670;7.788;2023-10-09T11:58:43;19.20;36.00
11009;DHT22;5557;51.670;7.788;2023-10-09T12:01:12;19.30;34.00
11009;DHT22;5557;51.670;7.788;2023-10-09T12:03:44;19.40;32.80
11009;DHT22;5557;51.670;7.788;2023-10-09T12:06:17;19.50;34.60
11009;DHT22;5557;51.670;7.788;2023-10-09T12:08:59;19.50;29.80
11009;DHT22;5557;51.670;7.788;2023-10-09T12:11:26;19.50;29.50
11009;DHT22;5557;51.670;7.788;2023-10-09T12:13:56;19.40;30.20
11009;DHT22;5557;51.670;7.788;2023-10-09T12:16:24;19.40;28.90
11009;DHT22;5557;51.670;7.788;2023-10-09T12:18:56;19.40;28.30
11009;DHT22;5557;51.670;7.788;2023-10-09T12:21:24;19.50;26.20
11009;DHT22;5557;51.670;7.788;2023-10-09T12:23:51;19.60;27.00
11009;DHT22;5557;51.670;7.788;2023-10-09T12:26:20;19.70;24.70
11009;DHT22;5557;51.670;7.788;2023-10-09T12:28:47;19.80;24.60
11009;DHT22;5557;51.670;7.788;2023-10-09T12:31:17;19.80;24.70
11009;DHT22;5557;51.670;7.788;2023-10-09T12:33:48;19.80;22.20
11009;DHT22;5557;51.670;7.788;2023-10-09T12:36:16;19.90;23.00
11009;DHT22;5557;51.670;7.788;2023-10-09T12:38:48;20.00;22.50
11009;DHT22;5557;51.670;7.788;2023-10-09T12:41:20;19.90;18.90
11009;DHT22;5557;51.670;7.788;2023-10-09T12:43:54;19.90;20.90
11009;DHT22;5557;51.670;7.788;2023-10-09T12:46:22;19.90;21.50
11009;DHT22;5557;51.670;7.788;2023-10-09T12:48:53;19.80;22.80
11009;DHT22;5557;51.670;7.788;2023-10-09T12:51:22;19.70;23.10
11009;DHT22;5557;51.670;7.788;2023-10-09T12:53:57;19.60;24.10
11009;DHT22;5557;51.670;7.788;2023-10-09T12:56:25;19.60;25.50
11009;DHT22;5557;51.670;7.788;2023-10-09T12:59:06;19.60;26.00
11009;DHT22;5557;51.670;7.788;2023-10-09T13:01:42;19.70;26.10
11009;DHT22;5557;51.670;7.788;2023-10-09T13:04:13;19.80;24.30
11009;DHT22;5557;51.670;7.788;2023-10-09T13:06:44;19.90;22.50
11009;DHT22;5557;51.670;7.788;2023-10-09T13:09:13;20.00;22.10
11009;DHT22;5557;51.670;7.788;2023-10-09T13:11:42;20.10;22.50
11009;DHT22;5557;51.670;7.788;2023-10-09T13:14:10;20.20;22.10
11009;DHT22;5557;51.670;7.788;2023-10-09T13:16:44;20.20;21.60
11009;DHT22;5557;51.670;7.788;2023-10-09T13:19:12;20.10;20.60
11009;DHT22;5557;51.670;7.788;2023-10-09T13:21:39;20.00;22.00
11009;DHT22;5557;51.670;7.788;2023-10-09T13:24:07;19.90;23.20
11009;DHT22;5557;51.670;7.788;2023-10-09T13:26:43;19.80;24.70
11009;DHT22;5557;51.670;7.788;2023-10-09T13:29:18;19.70;25.00
11009;DHT22;5557;51.670;7.788;2023-10-09T13:31:52;19.60;26.20
11009;DHT22;5557;51.670;7.788;2023-10-09T13:34:25;19.50;27.00
11009;DHT22;5557;51.670;7.788;2023-10-09T13:36:55;19.40;28.70
11009;DHT22;5557;51.670;7.788;2023-10-09T13:39:26;19.40;28.70
11009;DHT22;5557;51.670;7.788;2023-10-09T13:41:55;19.40;30.40
11009;DHT22;5557;51.670;7.788;2023-10-09T13:44:28;19.40;32.30
11009;DHT22;5557;51.670;7.788;2023-10-09T13:46:56;19.30;32.30
11009;DHT22;5557;51.670;7.788;2023-10-09T13:49:24;19.30;33.40
11009;DHT22;5557;51.670;7.788;2023-10-09T13:51:58;19.20;31.50
11009;DHT22;5557;51.670;7.788;2023-10-09T13:54:27;19.20;32.80
11009;DHT22;5557;51.670;7.788;2023-10-09T13:57:20;19.10;32.70
11009;DHT22;5557;51.670;7.788;2023-10-09T13:59:52;19.10;32.20
11009;DHT22;5557;51.670;7.788;2023-10-09T14:02:22;19.00;33.40
11009;DHT22;5557;51.670;7.788;2023-10-09T14:04:49;19.10;32.60
11009;DHT22;5557;51.670;7.788;2023-10-09T14:07:18;19.10;31.40
11009;DHT22;5557;51.670;7.788;2023-10-09T14:09:47;19.10;32.30
11009;DHT22;5557;51.670;7.788;2023-10-09T14:12:34;19.10;32.10
11009;DHT22;5557;51.670;7.788;2023-10-09T14:15:07;19.10;33.20
11009;DHT22;5557;51.670;7.788;2023-10-09T14:17:38;19.10;32.70
11009;DHT22;5557;51.670;7.788;2023-10-09T14:20:10;19.20;32.50
11009;DHT22;5557;51.670;7.788;2023-10-09T14:23:01;19.20;30.30
11009;DHT22;5557;51.670;7.788;2023-10-09T14:25:36;19.10;31.60
11009;DHT22;5557;51.670;7.788;2023-10-09T14:28:08;19.10;31.50
11009;DHT22;5557;51.670;7.788;2023-10-09T14:30:42;19.10;32.00
11009;DHT22;5557;51.670;7.788;2023-10-09T14:33:10;19.20;32.50
11009;DHT22;5557;51.670;7.788;2023-10-09T14:35:41;19.20;32.70
11009;DHT22;5557;51.670;7.788;2023-10-09T14:38:09;19.10;33.10
11009;DHT22;5557;51.670;7.788;2023-10-09T14:40:43;19.10;35.40
11009;DHT22;5557;51.670;7.788;2023-10-09T14:43:11;19.00;36.30
11009;DHT22;5557;51.670;7.788;2023-10-09T14:45:49;19.00;37.30
11009;DHT22;5557;51.670;7.788;2023-10-09T14:48:16;19.00;39.00
11009;DHT22;5557;51.670;7.788;2023-10-09T14:50:47;18.90;38.60
11009;DHT22;5557;51.670;7.788;2023-10-09T14:53:15;18.90;38.70
11009;DHT22;5557;51.670;7.788;2023-10-09T14:55:42;18.90;40.30
11009;DHT22;5557;51.670;7.788;2023-10-09T14:58:12;18.90;41.00
11009;DHT22;5557;51.670;7.788;2023-10-09T15:00:39;18.90;42.40
11009;DHT22;5557;51.670;7.788;2023-10-09T15:03:13;18.90;42.60
11009;DHT22;5557;51.670;7.788;2023-10-09T15:05:46;18.90;43.80
11009;DHT22;5557;51.670;7.788;2023-10-09T15:08:14;18.90;43.90
11009;DHT22;5557;51.670;7.788;2023-10-09T15:10:59;18.90;44.00
11009;DHT22;5557;51.670;7.788;2023-10-09T15:13:26;18.90;44.60
11009;DHT22;5557;51.670;7.788;2023-10-09T15:15:55;18.90;44.50
11009;DHT22;5557;51.670;7.788;2023-10-09T15:18:22;18.90;44.30
11009;DHT22;5557;51.670;7.788;2023-10-09T15:20:49;18.90;44.20
11009;DHT22;5557;51.670;7.788;2023-10-09T15:23:18;18.90;44.90
11009;DHT22;5557;51.670;7.788;2023-10-09T15:25:52;18.90;45.00
11009;DHT22;5557;51.670;7.788;2023-10-09T15:28:21;18.90;46.10
11009;DHT22;5557;51.670;7.788;2023-10-09T15:30:48;18.80;46.50
11009;DHT22;5557;51.670;7.788;2023-10-09T15:33:16;18.90;48.00
11009;DHT22;5557;51.670;7.788;2023-10-09T15:35:46;18.80;48.20
11009;DHT22;5557;51.670;7.788;2023-10-09T15:38:18;18.80;49.30
11009;DHT22;5557;51.670;7.788;2023-10-09T15:40:46;18.80;49.80
11009;DHT22;5557;51.670;7.788;2023-10-09T15:43:14;18.70;51.00
11009;DHT22;5557;51.670;7.788;2023-10-09T15:45:44;18.70;52.20
11009;DHT22;5557;51.670;7.788;2023-10-09T15:48:17;18.70;54.20
11009;DHT22;5557;51.670;7.788;2023-10-09T15:50:48;18.70;53.80
11009;DHT22;5557;51.670;7.788;2023-10-09T15:53:15;18.70;54.20
11009;DHT22;5557;51.670;7.788;2023-10-09T15:55:45;18.70;55.30
11009;DHT22;5557;51.670;7.788;2023-10-09T15:58:12;18.70;56.40
11009;DHT22;5557;51.670;7.788;2023-10-09T16:00:39;18.70;56.00
11009;DHT22;5557;51.670;7.788;2023-10-09T16:03:06;18.70;57.10
11009;DHT22;5557;51.670;7.788;2023-10-09T16:05:37;18.70;57.80
11009;DHT22;5557;51.670;7.788;2023-10-09T16:08:04;18.70;58.10
11009;DHT22;5557;51.670;7.788;2023-10-09T16:10:31;18.60;58.70
11009;DHT22;5557;51.670;7.788;2023-10-09T16:12:58;18.60;59.00
11009;DHT22;5557;51.670;7.788;2023-10-09T16:15:27;18.60;60.30
11009;DHT22;5557;51.670;7.788;2023-10-09T16:17:55;18.60;61.10
11009;DHT22;5557;51.670;7.788;2023-10-09T16:20:26;18.60;61.30
11009;DHT22;5557;51.670;7.788;2023-10-09T16:22:53;18.60;61.90
11009;DHT22;5557;51.670;7.788;2023-10-09T16:25:23;18.60;62.40
11009;DHT22;5557;51.670;7.788;2023-10-09T16:27:51;18.50;63.80
11009;DHT22;5557;51.670;7.788;2023-10-09T16:30:19;18.50;64.40
11009;DHT22;5557;51.670;7.788;2023-10-09T16:32:49;18.50;65.20
11009;DHT22;5557;51.670;7.788;2023-10-09T16:35:17;18.50;67.00
11009;DHT22;5557;51.670;7.788;2023-10-09T16:37:49;18.50;66.60
11009;DHT22;5557;51.670;7.788;2023-10-09T16:40:17;18.50;67.50
11009;DHT22;5557;51.670;7.788;2023-10-09T16:42:48;18.50;68.00